Time,TemperatureF,DewpointF,PressureIn,WindDirection,WindDirectionDegrees,WindSpeedMPH,WindSpeedGustMPH,Humidity,HourlyPrecipIn,Conditions,Clouds,dailyrainin,SoftwareType,DateUTC
2013-06-18 00:02:00,72.0,58.0,29.87,West,273,2.0,5.0,62,0.00,,,0.00,,2013-06-18 04:02:00,
2013-06-18 00:12:00,72.0,58.0,29.87,West,273,2.0,5.0,62,0.00,,,0.00,,2013-06-18 04:12:00,
2013-06-18 00:23:00,72.0,58.0,29.87,West,273,2.0,5.0,62,0.00,,,0.00,,2013-06-18 04:23:00,
2013-06-18 00:34:00,71.0,59.0,29.88,North,7,2.0,6.0,65,0.00,,,0.00,,2013-06-18 04:34:00,
2013-06-18 00:43:00,71.0,59.0,29.86,WSW,250,0.0,0.0,67,0.00,,,0.00,,2013-06-18 04:43:00,
2013-06-18 00:54:00,71.0,60.0,29.86,WSW,250,0.0,0.0,69,0.00,,,0.00,,2013-06-18 04:54:00,
2013-06-18 01:02:00,71.0,60.0,29.85,WSW,250,0.0,0.0,69,0.00,,,0.00,,2013-06-18 05:02:00,
2013-06-18 01:12:00,70.0,60.0,29.85,WSW,250,0.0,0.0,70,0.00,,,0.00,,2013-06-18 05:12:00,
2013-06-18 01:22:00,70.0,60.0,29.85,WSW,250,0.0,0.0,70,0.00,,,0.00,,2013-06-18 05:22:00,
2013-06-18 01:34:00,70.0,61.0,29.84,WSW,250,0.0,0.0,72,0.00,,,0.00,,2013-06-18 05:34:00,
2013-06-18 01:43:00,70.0,61.0,29.84,NW,305,0.0,0.0,73,0.00,,,0.00,,2013-06-18 05:43:00,
2013-06-18 01:53:00,70.0,61.0,29.83,NW,305,0.0,0.0,73,0.00,,,0.00,,2013-06-18 05:53:00,
2013-06-18 02:02:00,70.0,62.0,29.83,NW,305,0.0,0.0,75,0.00,,,0.00,,2013-06-18 06:02:00,
2013-06-18 02:11:00,69.0,61.0,29.84,NW,305,0.0,0.0,75,0.00,,,0.00,,2013-06-18 06:11:00,
2013-06-18 02:23:00,69.0,61.0,29.84,ENE,61,3.0,5.0,76,0.00,,,0.00,,2013-06-18 06:23:00,
2013-06-18 02:32:00,69.0,61.0,29.84,NE,34,0.0,0.0,76,0.00,,,0.00,,2013-06-18 06:32:00,
2013-06-18 02:43:00,69.0,62.0,29.83,North,5,0.0,6.0,78,0.00,,,0.00,,2013-06-18 06:43:00,
2013-06-18 02:52:00,69.0,62.0,29.83,North,5,0.0,6.0,78,0.00,,,0.00,,2013-06-18 06:52:00,
2013-06-18 03:02:00,69.0,62.0,29.83,NE,44,0.0,0.0,78,0.00,,,0.00,,2013-06-18 07:02:00,
2013-06-18 03:12:00,68.0,61.0,29.82,North,349,0.0,0.0,79,0.00,,,0.00,,2013-06-18 07:12:00,
2013-06-18 03:22:00,68.0,61.0,29.81,North,349,0.0,0.0,79,0.00,,,0.00,,2013-06-18 07:22:00,
2013-06-18 03:33:00,68.0,61.0,29.81,North,349,0.0,0.0,79,0.00,,,0.00,,2013-06-18 07:33:00,
2013-06-18 03:43:00,68.0,62.0,29.81,North,4,5.0,6.0,81,0.00,,,0.00,,2013-06-18 07:43:00,
2013-06-18 03:53:00,68.0,62.0,29.80,North,358,3.0,3.0,81,0.00,,,0.00,,2013-06-18 07:53:00,
2013-06-18 04:02:00,68.0,62.0,29.82,NE,41,1.0,0.0,82,0.00,,,0.00,,2013-06-18 08:02:00,
2013-06-18 04:11:00,68.0,62.0,29.82,North,350,0.0,0.0,82,0.00,,,0.00,,2013-06-18 08:11:00,
2013-06-18 04:23:00,68.0,63.0,29.81,North,350,0.0,0.0,84,0.00,,,0.00,,2013-06-18 08:23:00,
2013-06-18 04:33:00,68.0,63.0,29.81,North,350,0.0,0.0,84,0.00,,,0.00,,2013-06-18 08:33:00,
2013-06-18 04:43:00,67.0,62.0,29.81,North,350,0.0,0.0,84,0.00,,,0.00,,2013-06-18 08:43:00,
2013-06-18 04:52:00,68.0,63.0,29.83,North,350,0.0,0.0,84,0.00,,,0.00,,2013-06-18 08:52:00,
2013-06-18 05:02:00,68.0,63.0,29.84,WSW,240,0.0,0.0,85,0.00,,,0.00,,2013-06-18 09:02:00,
2013-06-18 05:12:00,68.0,63.0,29.84,SW,227,0.0,0.0,85,0.00,,,0.00,,2013-06-18 09:12:00,
2013-06-18 05:22:00,68.0,63.0,29.84,SW,223,1.0,5.0,85,0.00,,,0.00,,2013-06-18 09:22:00,
2013-06-18 05:34:00,68.0,63.0,29.84,SW,219,3.0,5.0,85,0.00,,,0.00,,2013-06-18 09:34:00,
2013-06-18 05:43:00,68.0,64.0,29.83,WSW,243,0.0,2.0,87,0.00,,,0.00,,2013-06-18 09:43:00,
2013-06-18 05:53:00,67.0,63.0,29.84,SW,215,0.0,0.0,87,0.00,,,0.00,,2013-06-18 09:53:00,
2013-06-18 06:02:00,68.0,63.0,29.84,WSW,240,0.0,0.0,85,0.00,,,0.00,,2013-06-18 10:02:00,
2013-06-18 06:11:00,67.0,63.0,29.84,WSW,258,0.0,0.0,87,0.00,,,0.00,,2013-06-18 10:11:00,
2013-06-18 06:22:00,67.0,63.0,29.84,WSW,258,0.0,0.0,88,0.00,,,0.00,,2013-06-18 10:22:00,
2013-06-18 06:33:00,67.0,63.0,29.84,WSW,258,0.0,0.0,88,0.00,,,0.00,,2013-06-18 10:33:00,
2013-06-18 06:43:00,67.0,63.0,29.85,WSW,258,0.0,0.0,88,0.00,,,0.00,,2013-06-18 10:43:00,
2013-06-18 06:53:00,67.0,63.0,29.85,WSW,258,0.0,0.0,88,0.00,,,0.00,,2013-06-18 10:53:00,
2013-06-18 07:02:00,67.0,64.0,29.85,WSW,258,0.0,0.0,90,0.00,,,0.00,,2013-06-18 11:02:00,
2013-06-18 07:11:00,67.0,64.0,29.85,WSW,258,0.0,0.0,90,0.00,,,0.00,,2013-06-18 11:11:00,
2013-06-18 07:22:00,67.0,64.0,29.85,WSW,258,0.0,0.0,90,0.00,,,0.00,,2013-06-18 11:22:00,
2013-06-18 07:32:00,67.0,64.0,29.85,WSW,258,0.0,0.0,90,0.00,,,0.00,,2013-06-18 11:32:00,
2013-06-18 07:43:00,67.0,64.0,29.85,WSW,258,0.0,0.0,90,0.00,,,0.00,,2013-06-18 11:43:00,
2013-06-18 07:52:00,67.0,64.0,29.86,WSW,258,0.0,0.0,90,0.00,,,0.00,,2013-06-18 11:52:00,
2013-06-18 08:01:00,67.0,64.0,29.86,WSW,258,0.0,0.0,90,0.00,,,0.00,,2013-06-18 12:01:00,
2013-06-18 08:11:00,67.0,64.0,29.87,WSW,258,0.0,0.0,90,0.00,,,0.00,,2013-06-18 12:11:00,
2013-06-18 08:22:00,68.0,65.0,29.87,WSW,258,0.0,0.0,90,0.00,,,0.00,,2013-06-18 12:22:00,
2013-06-18 08:33:00,68.0,65.0,29.87,WSW,258,0.0,0.0,90,0.00,,,0.00,,2013-06-18 12:33:00,
2013-06-18 08:43:00,68.0,65.0,29.87,WSW,258,0.0,0.0,90,0.00,,,0.00,,2013-06-18 12:43:00,
2013-06-18 08:52:00,68.0,65.0,29.88,WSW,258,0.0,0.0,90,0.00,,,0.00,,2013-06-18 12:52:00,
2013-06-18 09:02:00,68.0,65.0,29.88,WSW,258,0.0,0.0,90,0.00,,,0.00,,2013-06-18 13:02:00,
2013-06-18 09:12:00,68.0,65.0,29.88,WSW,258,0.0,0.0,90,0.00,,,0.00,,2013-06-18 13:12:00,
2013-06-18 09:22:00,68.0,65.0,29.88,WSW,258,0.0,0.0,90,0.00,,,0.00,,2013-06-18 13:22:00,
2013-06-18 09:33:00,68.0,65.0,29.88,WSW,258,0.0,0.0,90,0.00,,,0.00,,2013-06-18 13:33:00,
2013-06-18 09:43:00,68.0,65.0,29.88,WSW,258,0.0,0.0,90,0.00,,,0.00,,2013-06-18 13:43:00,
2013-06-18 09:52:00,68.0,65.0,29.89,WSW,258,0.0,0.0,90,0.00,,,0.00,,2013-06-18 13:52:00,
2013-06-18 10:02:00,69.0,65.0,29.89,WSW,258,0.0,0.0,88,0.00,,,0.00,,2013-06-18 14:02:00,
2013-06-18 10:11:00,69.0,65.0,29.88,WSW,258,0.0,0.0,88,0.00,,,0.00,,2013-06-18 14:11:00,
2013-06-18 10:22:00,69.0,65.0,29.88,WSW,258,0.0,0.0,88,0.00,,,0.00,,2013-06-18 14:22:00,
2013-06-18 10:33:00,69.0,65.0,29.88,WSW,258,0.0,0.0,87,0.00,,,0.00,,2013-06-18 14:33:00,
2013-06-18 10:43:00,69.0,65.0,29.88,WSW,258,0.0,0.0,87,0.00,,,0.00,,2013-06-18 14:43:00,
2013-06-18 10:53:00,69.0,65.0,29.87,WSW,258,0.0,0.0,87,0.00,,,0.00,,2013-06-18 14:53:00,
2013-06-18 11:02:00,69.0,65.0,29.87,WSW,258,0.0,0.0,87,0.00,,,0.00,,2013-06-18 15:02:00,
2013-06-18 11:11:00,70.0,66.0,29.87,WSW,258,0.0,0.0,87,0.00,,,0.00,,2013-06-18 15:11:00,
2013-06-18 11:22:00,70.0,65.0,29.87,WSW,258,0.0,0.0,85,0.00,,,0.00,,2013-06-18 15:22:00,
2013-06-18 11:33:00,70.0,65.0,29.87,WSW,258,0.0,0.0,85,0.00,,,0.00,,2013-06-18 15:33:00,
2013-06-18 11:43:00,71.0,66.0,29.87,WSW,258,0.0,0.0,84,0.00,,,0.00,,2013-06-18 15:43:00,
2013-06-18 11:53:00,71.0,66.0,29.87,WSW,258,0.0,0.0,84,0.00,,,0.00,,2013-06-18 15:53:00,
2013-06-18 12:01:00,72.0,66.0,29.86,WNW,288,0.0,0.0,81,0.00,,,0.00,,2013-06-18 16:01:00,
2013-06-18 12:11:00,72.0,66.0,29.86,WNW,288,0.0,0.0,81,0.00,,,0.00,,2013-06-18 16:11:00,
2013-06-18 12:23:00,74.0,66.0,29.85,North,0,0.0,0.0,75,0.00,,,0.00,,2013-06-18 16:23:00,
2013-06-18 12:33:00,75.0,66.0,29.85,North,0,0.0,0.0,73,0.00,,,0.00,,2013-06-18 16:33:00,
2013-06-18 12:43:00,75.0,65.0,29.85,WNW,299,0.0,0.0,72,0.00,,,0.00,,2013-06-18 16:43:00,
2013-06-18 12:53:00,76.0,65.0,29.85,North,0,0.0,0.0,69,0.00,,,0.00,,2013-06-18 16:53:00,
2013-06-18 13:02:00,77.0,65.0,29.85,North,11,0.0,3.0,66,0.00,,,0.00,,2013-06-18 17:02:00,
2013-06-18 13:12:00,77.0,64.0,29.85,North,349,0.0,0.0,65,0.00,,,0.00,,2013-06-18 17:12:00,
2013-06-18 13:22:00,77.0,62.0,29.85,NNW,348,5.0,8.0,60,0.00,,,0.00,,2013-06-18 17:22:00,
2013-06-18 13:33:00,78.0,62.0,29.85,WSW,241,2.0,2.0,59,0.00,,,0.00,,2013-06-18 17:33:00,
2013-06-18 13:43:00,79.0,62.0,29.85,WSW,237,0.0,2.0,57,0.00,,,0.00,,2013-06-18 17:43:00,
2013-06-18 13:53:00,80.0,63.0,29.85,SSW,208,0.0,0.0,57,0.00,,,0.00,,2013-06-18 17:53:00,
2013-06-18 14:02:00,80.0,62.0,29.85,East,83,0.0,3.0,55,0.00,,,0.00,,2013-06-18 18:02:00,
2013-06-18 14:11:00,80.0,61.0,29.85,North,0,1.0,0.0,52,0.00,,,0.00,,2013-06-18 18:11:00,
2013-06-18 14:22:00,82.0,61.0,29.84,North,349,0.0,0.0,50,0.00,,,0.00,,2013-06-18 18:22:00,
2013-06-18 14:33:00,82.0,61.0,29.84,East,86,3.0,6.0,50,0.00,,,0.00,,2013-06-18 18:33:00,
2013-06-18 14:42:00,83.0,61.0,29.84,NW,308,0.0,0.0,48,0.00,,,0.00,,2013-06-18 18:42:00,
2013-06-18 14:53:00,83.0,61.0,29.83,North,2,3.0,7.0,48,0.00,,,0.00,,2013-06-18 18:53:00,
2013-06-18 15:02:00,83.0,61.0,29.83,NNE,13,0.0,0.0,47,0.00,,,0.00,,2013-06-18 19:02:00,
2013-06-18 15:12:00,85.0,60.0,29.83,North,353,0.0,0.0,43,0.00,,,0.00,,2013-06-18 19:12:00,
2013-06-18 15:22:00,86.0,62.0,29.83,East,96,2.0,6.0,44,0.00,,,0.00,,2013-06-18 19:22:00,
2013-06-18 15:33:00,85.0,59.0,29.83,North,3,0.0,6.0,42,0.00,,,0.00,,2013-06-18 19:33:00,
2013-06-18 15:43:00,85.0,59.0,29.84,NNE,22,0.0,3.0,42,0.00,,,0.00,,2013-06-18 19:43:00,
2013-06-18 15:52:00,86.0,61.0,29.84,East,81,1.0,5.0,43,0.00,,,0.00,,2013-06-18 19:52:00,
2013-06-18 16:02:00,86.0,60.0,29.84,ENE,76,0.0,0.0,41,0.00,,,0.00,,2013-06-18 20:02:00,
2013-06-18 16:11:00,85.0,59.0,29.84,ENE,76,0.0,0.0,42,0.00,,,0.00,,2013-06-18 20:11:00,
2013-06-18 16:23:00,85.0,59.0,29.84,NNW,347,0.0,0.0,41,0.00,,,0.00,,2013-06-18 20:23:00,
2013-06-18 16:33:00,85.0,61.0,29.84,NNW,347,0.0,0.0,44,0.00,,,0.00,,2013-06-18 20:33:00,
2013-06-18 16:43:00,85.0,59.0,29.83,NNW,347,0.0,0.0,41,0.00,,,0.00,,2013-06-18 20:43:00,
2013-06-18 16:52:00,67.0,63.0,29.84,WSW,258,0.0,0.0,87,0.00,,,0.00,,2013-06-18 20:52:00,
2013-06-18 17:02:00,86.0,58.0,29.82,West,267,0.0,0.0,39,0.00,,,0.00,,2013-06-18 21:02:00,
2013-06-18 17:11:00,86.0,59.0,29.82,SSW,213,0.0,0.0,40,0.00,,,0.00,,2013-06-18 21:11:00,
2013-06-18 17:23:00,87.0,59.0,29.81,SSW,213,0.0,0.0,39,0.00,,,0.00,,2013-06-18 21:23:00,
2013-06-18 17:33:00,87.0,58.0,29.81,NNW,343,0.0,0.0,38,0.00,,,0.00,,2013-06-18 21:33:00,
2013-06-18 17:43:00,88.0,58.0,29.81,WSW,243,0.0,0.0,36,0.00,,,0.00,,2013-06-18 21:43:00,
2013-06-18 18:43:00,68.0,62.0,29.81,West,261,0.0,0.0,82,0.62,,,0.62,,2013-06-18 22:43:00,
2013-06-18 19:02:00,67.0,63.0,29.82,West,261,0.0,0.0,87,0.59,,,0.63,,2013-06-18 23:02:00,
2013-06-18 19:11:00,66.0,62.0,29.83,West,261,0.0,0.0,87,0.09,,,0.63,,2013-06-18 23:11:00,
2013-06-18 19:23:00,66.0,62.0,29.84,West,261,0.0,0.0,88,0.02,,,0.63,,2013-06-18 23:23:00,
2013-06-18 19:36:00,66.0,63.0,29.85,West,261,0.0,0.0,90,0.01,,,0.63,,2013-06-18 23:36:00,
2013-06-18 19:46:00,66.0,64.0,29.85,West,261,0.0,0.0,92,0.01,,,0.63,,2013-06-18 23:46:00,
2013-06-18 19:53:00,66.0,64.0,29.85,East,98,2.0,5.0,92,0.00,,,0.63,,2013-06-18 23:53:00,
2013-06-18 20:01:00,67.0,65.0,29.87,SE,126,1.0,3.0,93,0.00,,,0.63,,2013-06-19 00:01:00,
2013-06-18 20:11:00,66.0,64.0,29.86,South,185,0.0,0.0,93,0.00,,,0.63,,2013-06-19 00:11:00,
2013-06-18 20:22:00,67.0,66.0,29.87,South,185,0.0,0.0,95,0.00,,,0.63,,2013-06-19 00:22:00,
2013-06-18 20:33:00,67.0,66.0,29.87,South,185,0.0,0.0,95,0.00,,,0.63,,2013-06-19 00:33:00,
2013-06-18 20:43:00,67.0,66.0,29.87,South,185,0.0,0.0,95,0.00,,,0.63,,2013-06-19 00:43:00,
2013-06-18 20:53:00,67.0,66.0,29.88,South,185,0.0,0.0,95,0.00,,,0.63,,2013-06-19 00:53:00,
2013-06-18 21:01:00,67.0,66.0,29.88,South,185,0.0,0.0,95,0.00,,,0.63,,2013-06-19 01:01:00,
2013-06-18 21:11:00,66.0,65.0,29.88,South,185,0.0,0.0,95,0.00,,,0.63,,2013-06-19 01:11:00,
2013-06-18 21:22:00,66.0,65.0,29.88,South,185,0.0,0.0,95,0.00,,,0.63,,2013-06-19 01:22:00,
2013-06-18 21:32:00,66.0,65.0,29.87,South,185,0.0,0.0,95,0.00,,,0.63,,2013-06-19 01:32:00,
2013-06-18 21:43:00,66.0,65.0,29.87,South,185,0.0,0.0,95,0.00,,,0.63,,2013-06-19 01:43:00,
2013-06-18 21:53:00,66.0,65.0,29.87,South,185,0.0,0.0,95,0.00,,,0.63,,2013-06-19 01:53:00,
2013-06-18 22:01:00,66.0,65.0,29.87,South,185,0.0,0.0,95,0.00,,,0.63,,2013-06-19 02:01:00,
2013-06-18 22:11:00,66.0,65.0,29.87,South,185,0.0,0.0,95,0.00,,,0.63,,2013-06-19 02:11:00,
2013-06-18 22:21:00,66.0,65.0,29.87,South,185,0.0,0.0,95,0.00,,,0.63,,2013-06-19 02:21:00,
2013-06-18 22:32:00,66.0,65.0,29.88,South,185,0.0,0.0,95,0.00,,,0.63,,2013-06-19 02:32:00,
2013-06-18 22:42:00,66.0,65.0,29.89,South,185,0.0,0.0,95,0.00,,,0.63,,2013-06-19 02:42:00,
2013-06-18 22:51:00,66.0,65.0,29.89,South,185,0.0,0.0,95,0.00,,,0.63,,2013-06-19 02:51:00,
2013-06-18 23:01:00,66.0,65.0,29.89,South,185,0.0,0.0,95,0.00,,,0.63,,2013-06-19 03:01:00,
2013-06-18 23:11:00,66.0,65.0,29.90,South,185,0.0,0.0,95,0.00,,,0.63,,2013-06-19 03:11:00,
2013-06-18 23:22:00,66.0,65.0,29.90,South,185,0.0,0.0,95,0.00,,,0.63,,2013-06-19 03:22:00,
2013-06-18 23:33:00,66.0,65.0,29.90,South,185,0.0,0.0,95,0.00,,,0.63,,2013-06-19 03:33:00,
2013-06-18 23:42:00,66.0,65.0,29.91,South,185,0.0,0.0,95,0.00,,,0.63,,2013-06-19 03:42:00,
2013-06-18 23:52:00,66.0,65.0,29.92,North,354,0.0,0.0,95,0.00,,,0.63,,2013-06-19 03:52:00,